createdAt,value
2018-01-22T00:02:05.565Z,14.07
2018-01-22T00:04:31.786Z,15.80
2018-01-22T00:06:58.099Z,13.27
2018-01-22T00:09:24.323Z,14.40
2018-01-22T00:11:50.514Z,14.55
2018-01-22T00:14:17.096Z,14.00
2018-01-22T00:16:43.331Z,14.18
2018-01-22T00:19:09.638Z,13.77
2018-01-22T00:21:35.875Z,13.62
2018-01-22T00:24:02.112Z,13.60
2018-01-22T00:26:28.356Z,14.38
2018-01-22T00:28:54.640Z,15.70
2018-01-22T00:31:20.832Z,13.02
2018-01-22T00:33:47.101Z,14.77
2018-01-22T00:36:13.322Z,12.15
2018-01-22T00:38:39.555Z,12.50
2018-01-22T00:41:05.775Z,11.75
2018-01-22T00:43:32.017Z,12.68
2018-01-22T00:45:58.246Z,13.02
2018-01-22T00:48:24.481Z,13.32
2018-01-22T00:50:50.696Z,13.45
2018-01-22T00:53:16.923Z,12.90
2018-01-22T00:55:43.102Z,13.65
2018-01-22T00:58:09.308Z,12.43
2018-01-22T01:00:35.566Z,11.35
2018-01-22T01:03:02.226Z,12.57
2018-01-22T01:05:28.473Z,11.68
2018-01-22T01:07:54.690Z,13.35
2018-01-22T01:10:20.950Z,11.98
2018-01-22T01:12:47.165Z,11.60
2018-01-22T01:15:13.385Z,11.93
2018-01-22T01:17:39.590Z,15.27
2018-01-22T01:20:06.179Z,13.05
2018-01-22T01:22:32.429Z,12.35
2018-01-22T01:24:58.642Z,12.93
2018-01-22T01:27:24.869Z,14.40
2018-01-22T01:29:51.110Z,13.20
2018-01-22T01:32:17.639Z,14.27
2018-01-22T01:34:43.830Z,12.73
2018-01-22T01:37:10.061Z,13.27
2018-01-22T01:39:36.307Z,15.73
2018-01-22T01:42:03.428Z,12.48
2018-01-22T01:44:29.687Z,14.73
2018-01-22T01:46:55.942Z,10.27
2018-01-22T01:49:22.187Z,9.00
2018-01-22T01:51:48.413Z,10.00
2018-01-22T01:54:14.671Z,10.88
2018-01-22T01:56:40.869Z,12.88
2018-01-22T01:59:07.082Z,8.60
2018-01-22T02:01:33.324Z,6.62
2018-01-22T02:03:59.591Z,5.47
2018-01-22T02:06:25.832Z,5.97
2018-01-22T02:08:52.064Z,5.57
2018-01-22T02:11:18.297Z,4.68
2018-01-22T02:13:44.517Z,4.03
2018-01-22T02:16:10.747Z,3.80
2018-01-22T02:18:36.970Z,4.72
2018-01-22T02:21:03.228Z,4.32
2018-01-22T02:23:29.992Z,3.80
2018-01-22T02:25:56.600Z,4.30
2018-01-22T02:28:22.815Z,3.97
2018-01-22T02:30:49.029Z,3.62
2018-01-22T02:33:15.272Z,3.62
2018-01-22T02:35:41.541Z,4.18
2018-01-22T02:38:07.781Z,4.50
2018-01-22T02:40:33.986Z,4.05
2018-01-22T02:43:00.201Z,4.70
2018-01-22T02:45:26.416Z,3.45
2018-01-22T02:47:52.661Z,3.20
2018-01-22T02:50:18.913Z,4.35
2018-01-22T02:52:45.208Z,4.22
2018-01-22T02:55:11.824Z,4.10
2018-01-22T02:57:38.048Z,4.78
2018-01-22T03:00:04.336Z,4.20
2018-01-22T03:02:30.938Z,5.30
2018-01-22T03:04:57.183Z,4.00
2018-01-22T03:07:23.407Z,3.83
2018-01-22T03:09:49.657Z,3.92
2018-01-22T03:12:16.252Z,4.80
2018-01-22T03:14:42.480Z,4.85
2018-01-22T03:17:08.890Z,3.90
2018-01-22T03:19:42.007Z,5.12
2018-01-22T03:22:08.269Z,5.70
2018-01-22T03:24:34.509Z,5.35
2018-01-22T03:27:00.720Z,4.03
2018-01-22T03:29:26.957Z,4.05
2018-01-22T03:31:53.180Z,4.40
2018-01-22T03:34:19.397Z,4.35
2018-01-22T03:36:46.185Z,4.50
2018-01-22T03:39:12.385Z,4.65
2018-01-22T03:41:38.995Z,5.25
2018-01-22T03:44:05.233Z,4.37
2018-01-22T03:46:31.477Z,5.25
2018-01-22T03:48:58.097Z,4.60
2018-01-22T03:51:24.350Z,4.12
2018-01-22T03:53:50.598Z,4.93
2018-01-22T03:56:16.803Z,3.92
2018-01-22T03:58:43.027Z,4.03
2018-01-22T04:01:09.624Z,3.90
2018-01-22T04:03:35.871Z,4.37
2018-01-22T04:06:02.061Z,3.28
2018-01-22T04:08:28.312Z,5.25
2018-01-22T04:10:54.543Z,4.32
2018-01-22T04:13:20.746Z,4.35
2018-01-22T04:15:46.978Z,3.97
2018-01-22T04:18:13.788Z,8.52
2018-01-22T04:20:40.029Z,4.57
2018-01-22T04:23:06.285Z,4.20
2018-01-22T04:25:32.531Z,4.05
2018-01-22T04:27:58.726Z,4.30
2018-01-22T04:30:24.991Z,3.65
2018-01-22T04:32:51.220Z,11.15
2018-01-22T04:35:17.883Z,4.18
2018-01-22T04:37:44.134Z,4.03
2018-01-22T04:40:10.355Z,4.20
2018-01-22T04:42:36.564Z,3.65
2018-01-22T04:45:02.796Z,4.00
2018-01-22T04:47:29.377Z,4.05
2018-01-22T04:49:55.654Z,4.10
2018-01-22T04:52:22.236Z,4.32
2018-01-22T04:54:48.468Z,4.57
2018-01-22T04:57:14.783Z,4.68
2018-01-22T04:59:41.023Z,4.90
2018-01-22T05:02:07.199Z,4.82
2018-01-22T05:04:33.820Z,3.83
2018-01-22T05:07:00.060Z,4.97
2018-01-22T05:09:26.665Z,4.70
2018-01-22T05:11:52.880Z,4.68
2018-01-22T05:14:19.096Z,4.25
2018-01-22T05:16:46.649Z,5.85
2018-01-22T05:19:12.895Z,5.25
2018-01-22T05:21:39.119Z,5.60
2018-01-22T05:24:05.377Z,5.37
2018-01-22T05:26:31.613Z,5.53
2018-01-22T05:28:57.834Z,6.80
2018-01-22T05:31:24.044Z,6.35
2018-01-22T05:33:50.268Z,7.80
2018-01-22T05:36:16.476Z,6.45
2018-01-22T05:38:42.748Z,6.40
2018-01-22T05:41:08.939Z,6.60
2018-01-22T05:43:35.172Z,7.00
2018-01-22T05:46:01.399Z,7.45
2018-01-22T05:48:27.623Z,6.35
2018-01-22T05:50:53.902Z,6.75
2018-01-22T05:53:20.768Z,6.10
2018-01-22T05:55:47.047Z,6.40
2018-01-22T05:58:13.266Z,6.53
2018-01-22T06:00:39.918Z,7.18
2018-01-22T06:03:06.108Z,6.97
2018-01-22T06:05:32.308Z,7.00
2018-01-22T06:07:58.565Z,7.70
2018-01-22T06:10:24.826Z,7.35
2018-01-22T06:12:51.107Z,8.15
2018-01-22T06:15:17.371Z,8.23
2018-01-22T06:17:43.661Z,7.22
2018-01-22T06:20:09.907Z,7.18
2018-01-22T06:22:36.204Z,8.57
2018-01-22T06:25:02.792Z,8.40
2018-01-22T06:27:29.014Z,7.50
2018-01-22T06:29:55.248Z,8.18
2018-01-22T06:32:21.432Z,8.80
2018-01-22T06:34:47.661Z,8.65
2018-01-22T06:37:13.865Z,8.27
2018-01-22T06:39:40.106Z,9.82
2018-01-22T06:42:06.341Z,9.25
2018-01-22T06:44:32.541Z,9.52
2018-01-22T06:46:59.064Z,8.85
2018-01-22T06:49:25.279Z,10.00
2018-01-22T06:51:52.544Z,10.25
2018-01-22T06:54:18.754Z,10.45
2018-01-22T06:56:45.007Z,8.60
2018-01-22T06:59:11.585Z,11.05
2018-01-22T07:01:37.790Z,10.00
2018-01-22T07:04:03.987Z,10.60
2018-01-22T07:06:30.173Z,10.13
2018-01-22T07:08:56.420Z,10.38
2018-01-22T07:11:22.625Z,8.82
2018-01-22T07:13:48.842Z,9.23
2018-01-22T07:16:15.416Z,12.48
2018-01-22T07:18:41.657Z,9.65
2018-01-22T07:21:07.901Z,10.98
2018-01-22T07:23:34.095Z,12.40
2018-01-22T07:26:00.343Z,12.25
2018-01-22T07:28:26.536Z,12.63
2018-01-22T07:30:52.764Z,13.62
2018-01-22T07:33:18.959Z,12.95
2018-01-22T07:35:45.171Z,12.45
2018-01-22T07:38:11.407Z,13.35
2018-01-22T07:40:37.637Z,12.20
2018-01-22T07:43:03.885Z,13.15
2018-01-22T07:45:30.073Z,11.90
2018-01-22T07:47:56.385Z,11.45
2018-01-22T07:50:22.610Z,10.70
2018-01-22T07:52:48.838Z,11.35
2018-01-22T07:55:15.067Z,10.48
2018-01-22T07:57:41.315Z,11.93
2018-01-22T08:00:08.672Z,9.55
2018-01-22T08:02:34.888Z,10.60
2018-01-22T08:05:01.121Z,11.80
2018-01-22T08:07:27.337Z,13.80
2018-01-22T08:09:53.545Z,10.07
2018-01-22T08:12:19.847Z,12.77
2018-01-22T08:14:46.059Z,12.82
2018-01-22T08:17:12.308Z,16.12
2018-01-22T08:19:38.522Z,20.95
2018-01-22T08:22:04.770Z,20.20
2018-01-22T08:24:31.019Z,19.50
2018-01-22T08:26:57.250Z,18.73
2018-01-22T08:29:23.461Z,21.17
2018-01-22T08:31:49.683Z,26.45
2018-01-22T08:34:15.910Z,27.50
2018-01-22T08:36:42.135Z,22.65
2018-01-22T08:39:08.373Z,23.58
2018-01-22T08:41:34.587Z,21.87
2018-01-22T08:44:00.824Z,28.83
2018-01-22T08:46:27.022Z,20.60
2018-01-22T08:48:53.227Z,25.88
2018-01-22T08:51:19.449Z,23.80
2018-01-22T08:53:45.786Z,19.05
2018-01-22T08:56:12.804Z,22.87
2018-01-22T08:58:39.060Z,20.02
2018-01-22T09:01:05.362Z,20.10
2018-01-22T09:03:31.693Z,18.90
2018-01-22T09:05:57.920Z,24.27
2018-01-22T09:08:24.159Z,19.75
2018-01-22T09:10:50.424Z,17.20
2018-01-22T09:13:16.667Z,11.05
2018-01-22T09:15:43.233Z,11.18
2018-01-22T09:18:09.512Z,12.70
2018-01-22T09:20:35.752Z,30.88
2018-01-22T09:23:02.382Z,100.18
2018-01-22T09:25:28.996Z,60.10
2018-01-22T09:27:55.231Z,93.18
2018-01-22T09:30:21.833Z,105.30
2018-01-22T09:32:48.057Z,93.50
2018-01-22T09:35:14.303Z,90.82
2018-01-22T09:37:40.514Z,94.30
2018-01-22T09:40:06.746Z,85.00
2018-01-22T09:42:32.991Z,82.78
2018-01-22T09:44:59.255Z,76.35
2018-01-22T09:47:25.893Z,77.50
2018-01-22T09:49:52.575Z,72.65
2018-01-22T09:52:18.787Z,73.95
2018-01-22T09:54:45.006Z,67.55
2018-01-22T09:57:11.590Z,63.85
2018-01-22T09:59:37.860Z,58.72
2018-01-22T10:02:04.452Z,53.15
2018-01-22T10:04:30.656Z,50.22
2018-01-22T10:06:56.897Z,48.45
2018-01-22T10:09:23.164Z,38.30
2018-01-22T10:11:49.851Z,23.83
2018-01-22T10:14:16.085Z,17.58
2018-01-22T10:16:42.455Z,9.25
2018-01-22T10:19:08.807Z,8.63
2018-01-22T10:21:35.171Z,8.68
2018-01-22T10:24:01.448Z,9.13
2018-01-22T10:26:28.551Z,9.18
2018-01-22T10:28:54.743Z,8.77
2018-01-22T10:31:21.325Z,9.00
2018-01-22T10:33:47.612Z,9.50
2018-01-22T10:36:13.870Z,8.75
2018-01-22T10:38:40.121Z,8.95
2018-01-22T10:41:06.341Z,9.57
2018-01-22T10:43:32.543Z,8.85
2018-01-22T10:45:58.806Z,8.25
2018-01-22T10:48:25.038Z,8.77
2018-01-22T10:50:51.385Z,9.48
2018-01-22T10:53:17.631Z,8.68
2018-01-22T10:55:43.869Z,8.77
2018-01-22T10:58:10.134Z,8.98
2018-01-22T11:00:36.425Z,11.63
2018-01-22T11:03:03.024Z,9.88
2018-01-22T11:05:29.318Z,9.07
2018-01-22T11:07:55.550Z,8.52
2018-01-22T11:10:21.773Z,8.40
2018-01-22T11:12:48.017Z,9.15
2018-01-22T11:15:14.261Z,9.55
2018-01-22T11:17:40.529Z,9.70
2018-01-22T11:20:06.748Z,10.30
2018-01-22T11:22:33.078Z,10.23
2018-01-22T11:24:59.309Z,14.98
2018-01-22T11:27:25.888Z,24.25
2018-01-22T11:29:52.198Z,18.10
2018-01-22T11:32:18.519Z,18.67
2018-01-22T11:34:45.125Z,25.90
2018-01-22T11:37:11.351Z,26.08
2018-01-22T11:39:37.597Z,28.02
2018-01-22T11:42:03.812Z,24.83
2018-01-22T11:44:30.027Z,19.10
2018-01-22T11:46:56.279Z,23.65
2018-01-22T11:49:22.507Z,25.42
2018-01-22T11:51:49.372Z,20.17
2018-01-22T11:54:15.610Z,15.90
2018-01-22T11:56:41.884Z,14.90
2018-01-22T11:59:08.464Z,13.82
2018-01-22T12:01:34.865Z,11.90
2018-01-22T12:04:01.130Z,8.32
2018-01-22T12:06:27.370Z,10.23
2018-01-22T12:08:53.613Z,14.40
2018-01-22T12:11:19.801Z,16.02
2018-01-22T12:13:46.061Z,12.95
2018-01-22T12:16:12.284Z,10.70
2018-01-22T12:18:38.543Z,13.13
2018-01-22T12:21:04.843Z,14.15
2018-01-22T12:23:31.226Z,14.00
2018-01-22T12:25:58.364Z,14.60
2018-01-22T12:28:24.657Z,12.57
2018-01-22T12:30:50.921Z,5.55
2018-01-22T12:33:17.135Z,4.22
2018-01-22T12:35:43.395Z,4.15
2018-01-22T12:38:09.616Z,4.62
2018-01-22T12:40:35.876Z,4.03
2018-01-22T12:43:02.077Z,5.87
2018-01-22T12:45:28.300Z,3.30
2018-01-22T12:47:54.562Z,4.70
2018-01-22T12:50:20.824Z,3.75
2018-01-22T12:52:47.041Z,4.60
2018-01-22T12:55:13.259Z,4.30
2018-01-22T12:57:39.612Z,5.70
2018-01-22T13:00:05.877Z,5.85
2018-01-22T13:02:32.082Z,8.98
2018-01-22T13:04:58.293Z,8.98
2018-01-22T13:07:24.509Z,10.13
2018-01-22T13:09:50.756Z,7.53
2018-01-22T13:12:17.043Z,2.70
2018-01-22T13:14:44.878Z,2.75
2018-01-22T13:17:11.158Z,4.03
2018-01-22T13:19:37.418Z,2.90
2018-01-22T13:22:03.635Z,3.55
2018-01-22T13:24:30.571Z,5.25
2018-01-22T13:26:56.932Z,4.40
2018-01-22T13:29:23.197Z,8.27
2018-01-22T13:31:49.796Z,4.90
2018-01-22T13:34:16.070Z,7.32
2018-01-22T13:36:42.304Z,10.27
2018-01-22T13:39:08.541Z,11.68
2018-01-22T13:41:34.806Z,8.45
2018-01-22T13:44:01.753Z,7.40
2018-01-22T13:46:28.030Z,7.32
2018-01-22T13:48:54.297Z,6.85
2018-01-22T13:51:20.503Z,7.28
2018-01-22T13:53:46.778Z,5.93
2018-01-22T13:56:13.001Z,5.57
2018-01-22T13:58:39.242Z,3.42
2018-01-22T14:01:05.495Z,3.55
2018-01-22T14:03:31.740Z,5.20
2018-01-22T14:05:57.989Z,4.57
2018-01-22T14:08:24.240Z,6.50
2018-01-22T14:10:50.475Z,15.20
2018-01-22T14:13:16.770Z,11.27
2018-01-22T14:15:43.255Z,9.18
2018-01-22T14:18:09.491Z,8.35
2018-01-22T14:20:36.138Z,6.55
2018-01-22T14:23:02.448Z,8.32
2018-01-22T14:25:29.037Z,9.48
2018-01-22T14:27:55.290Z,10.95
2018-01-22T14:30:21.600Z,25.98
2018-01-22T14:32:47.816Z,44.13
2018-01-22T14:35:14.050Z,48.40
2018-01-22T14:37:40.382Z,48.45
2018-01-22T14:40:06.629Z,51.95
2018-01-22T14:42:32.885Z,57.30
2018-01-22T14:44:59.533Z,60.35
2018-01-22T14:47:26.233Z,59.72
2018-01-22T14:49:52.580Z,64.78
2018-01-22T14:52:18.903Z,60.70
2018-01-22T14:54:45.117Z,61.05
2018-01-22T14:57:11.397Z,63.33
2018-01-22T14:59:38.045Z,63.67
2018-01-22T15:02:04.314Z,66.12
2018-01-22T15:04:30.533Z,69.03
2018-01-22T15:06:56.769Z,68.15
2018-01-22T15:09:22.999Z,68.78
2018-01-22T15:11:49.379Z,68.25
2018-01-22T15:14:16.005Z,75.85
2018-01-22T15:16:42.613Z,71.40
2018-01-22T15:19:08.868Z,72.18
2018-01-22T15:21:35.464Z,74.35
2018-01-22T15:24:01.744Z,103.60
2018-01-22T15:26:28.342Z,87.55
2018-01-22T15:28:54.600Z,89.93
2018-01-22T15:31:20.830Z,63.80
2018-01-22T15:33:47.467Z,63.75
2018-01-22T15:36:14.138Z,75.82
2018-01-22T15:38:40.376Z,76.87
2018-01-22T15:41:06.676Z,65.00
2018-01-22T15:43:32.911Z,65.65
2018-01-22T15:45:59.137Z,64.85
2018-01-22T15:48:25.394Z,69.62
2018-01-22T15:50:51.654Z,83.28
2018-01-22T15:53:17.919Z,108.95
2018-01-22T15:55:44.535Z,77.07
2018-01-22T15:58:10.762Z,78.22
2018-01-22T16:00:37.391Z,95.45
2018-01-22T16:03:03.694Z,84.00
2018-01-22T16:05:29.896Z,82.55
2018-01-22T16:07:56.173Z,106.25
2018-01-22T16:10:22.424Z,79.85
2018-01-22T16:12:48.675Z,82.30
2018-01-22T16:15:15.260Z,213.12
2018-01-22T16:17:42.503Z,90.62
2018-01-22T16:20:08.740Z,97.75
2018-01-22T16:22:35.621Z,87.07
2018-01-22T16:25:03.177Z,101.70
2018-01-22T16:27:29.791Z,89.18
2018-01-22T16:29:56.014Z,85.85
2018-01-22T16:32:22.237Z,85.40
2018-01-22T16:34:48.524Z,92.97
2018-01-22T16:37:14.728Z,91.85
2018-01-22T16:39:41.346Z,91.37
2018-01-22T16:42:07.604Z,113.78
2018-01-22T16:44:33.900Z,95.07
2018-01-22T16:47:06.163Z,81.70
2018-01-22T16:49:32.625Z,99.15
2018-01-22T16:51:59.348Z,93.20
2018-01-22T16:54:25.624Z,92.97
2018-01-22T16:56:51.905Z,96.50
2018-01-22T16:59:18.113Z,93.22
2018-01-22T17:01:44.380Z,94.90
2018-01-22T17:04:11.054Z,106.05
2018-01-22T17:06:37.276Z,93.20
2018-01-22T17:09:03.612Z,94.95
2018-01-22T17:11:29.865Z,90.32
2018-01-22T17:13:56.112Z,93.03
2018-01-22T17:16:22.337Z,113.10
2018-01-22T17:18:48.585Z,95.40
2018-01-22T17:21:15.189Z,101.72
2018-01-22T17:23:41.472Z,102.00
2018-01-22T17:26:07.735Z,102.80
2018-01-22T17:28:34.018Z,119.78
2018-01-22T17:31:00.310Z,102.57
2018-01-22T17:33:26.547Z,109.15
2018-01-22T17:35:52.803Z,109.55
2018-01-22T17:38:19.422Z,109.85
2018-01-22T17:40:46.032Z,120.22
2018-01-22T17:43:12.777Z,119.00
2018-01-22T17:45:38.992Z,124.35
2018-01-22T17:48:05.235Z,102.47
2018-01-22T17:50:31.470Z,99.50
2018-01-22T17:52:58.380Z,82.82
2018-01-22T17:55:24.596Z,62.80
2018-01-22T17:57:50.961Z,54.67
2018-01-22T18:00:17.237Z,55.35
2018-01-22T18:02:43.539Z,54.78
2018-01-22T18:05:09.798Z,58.75
2018-01-22T18:07:36.043Z,57.03
2018-01-22T18:10:02.342Z,58.47
2018-01-22T18:12:28.980Z,61.33
2018-01-22T18:14:55.610Z,58.85
2018-01-22T18:17:22.821Z,65.07
2018-01-22T18:19:49.057Z,60.47
2018-01-22T18:22:16.070Z,59.20
2018-01-22T18:24:42.341Z,57.47
2018-01-22T18:27:08.660Z,54.42
2018-01-22T18:29:34.884Z,53.47
2018-01-22T18:32:01.165Z,56.33
2018-01-22T18:34:27.774Z,59.10
2018-01-22T18:36:54.101Z,63.97
2018-01-22T18:39:20.423Z,56.30
2018-01-22T18:41:46.683Z,54.20
2018-01-22T18:44:13.290Z,59.30
2018-01-22T18:46:39.568Z,56.53
2018-01-22T18:49:05.808Z,54.30
2018-01-22T18:51:32.077Z,52.60
2018-01-22T18:53:58.332Z,51.55
2018-01-22T18:56:24.635Z,55.12
2018-01-22T18:58:50.860Z,59.40
2018-01-22T19:01:17.111Z,55.97
2018-01-22T19:03:43.799Z,54.10
2018-01-22T19:06:10.048Z,56.20
2018-01-22T19:08:37.087Z,53.40
2018-01-22T19:11:03.415Z,53.47
2018-01-22T19:13:29.802Z,56.05
2018-01-22T19:15:56.054Z,63.65
2018-01-22T19:18:22.361Z,58.78
2018-01-22T19:20:48.961Z,59.92
2018-01-22T19:23:15.534Z,66.90
2018-01-22T19:25:41.902Z,71.43
2018-01-22T19:28:08.194Z,72.90
2018-01-22T19:30:34.841Z,74.68
2018-01-22T19:33:01.118Z,70.85
2018-01-22T19:35:27.374Z,73.72
2018-01-22T19:37:54.037Z,79.25
2018-01-22T19:40:20.379Z,74.95
2018-01-22T19:42:47.510Z,76.93
2018-01-22T19:45:14.129Z,74.25
2018-01-22T19:47:40.767Z,77.05
2018-01-22T19:50:07.401Z,75.22
2018-01-22T19:52:33.823Z,76.07
2018-01-22T19:55:00.132Z,72.25
2018-01-22T19:57:26.816Z,66.90
2018-01-22T19:59:53.108Z,70.85
2018-01-22T20:02:20.039Z,64.87
2018-01-22T20:04:46.366Z,65.40
2018-01-22T20:07:12.820Z,64.53
2018-01-22T20:09:39.188Z,64.87
2018-01-22T20:12:05.507Z,64.40
2018-01-22T20:14:32.190Z,65.90
2018-01-22T20:16:58.478Z,69.50
2018-01-22T20:19:25.149Z,71.85
2018-01-22T20:21:51.442Z,73.00
2018-01-22T20:24:17.761Z,71.22
2018-01-22T20:26:44.084Z,72.97
2018-01-22T20:29:10.394Z,74.03
2018-01-22T20:31:36.756Z,76.10
2018-01-22T20:34:03.082Z,75.50
2018-01-22T20:36:29.355Z,78.25
2018-01-22T20:38:55.589Z,81.65
2018-01-22T20:41:21.837Z,81.80
2018-01-22T20:43:48.157Z,79.65
2018-01-22T20:46:14.510Z,79.53
2018-01-22T20:48:40.858Z,72.32
2018-01-22T20:51:07.107Z,73.60
2018-01-22T20:53:33.447Z,76.95
2018-01-22T20:56:00.104Z,72.57
2018-01-22T20:58:26.519Z,78.50
2018-01-22T21:00:52.767Z,85.90
2018-01-22T21:03:18.998Z,82.32
2018-01-22T21:05:45.311Z,83.85
2018-01-22T21:08:11.565Z,79.05
2018-01-22T21:10:37.855Z,74.47
2018-01-22T21:13:04.475Z,76.87
2018-01-22T21:15:31.136Z,81.82
2018-01-22T21:17:57.783Z,78.03
2018-01-22T21:20:24.046Z,86.87
2018-01-22T21:22:50.387Z,77.65
2018-01-22T21:25:16.737Z,84.90
2018-01-22T21:27:42.995Z,87.57
2018-01-22T21:30:12.104Z,92.45
2018-01-22T21:32:38.370Z,87.05
2018-01-22T21:35:04.615Z,86.30
2018-01-22T21:37:30.927Z,84.53
2018-01-22T21:39:57.172Z,84.43
2018-01-22T21:42:24.605Z,83.78
2018-01-22T21:44:50.873Z,195.18
2018-01-22T21:47:17.116Z,77.80
2018-01-22T21:49:43.720Z,52.40
2018-01-22T21:52:09.953Z,227.73
2018-01-22T21:54:36.774Z,51.72
2018-01-22T21:57:03.049Z,182.32
2018-01-22T21:59:29.299Z,143.45
2018-01-22T22:01:55.542Z,114.10
2018-01-22T22:04:21.798Z,140.00
2018-01-22T22:06:48.583Z,83.65
2018-01-22T22:09:14.794Z,235.98
2018-01-22T22:11:41.043Z,165.45
2018-01-22T22:14:07.282Z,25.17
2018-01-22T22:16:33.497Z,13.27
2018-01-22T22:18:59.793Z,13.00
2018-01-22T22:21:26.034Z,13.32
2018-01-22T22:23:52.682Z,13.02
2018-01-22T22:26:19.297Z,14.07
2018-01-22T22:28:45.581Z,15.13
2018-01-22T22:31:12.828Z,13.23
2018-01-22T22:33:39.097Z,15.50
2018-01-22T22:36:05.335Z,166.57
2018-01-22T22:38:31.545Z,189.05
2018-01-22T22:40:58.772Z,149.98
2018-01-22T22:43:25.001Z,40.25
2018-01-22T22:45:51.269Z,47.35
2018-01-22T22:48:17.534Z,175.40
2018-01-22T22:50:43.780Z,260.90
2018-01-22T22:53:10.035Z,116.28
2018-01-22T22:55:36.248Z,274.48
2018-01-22T22:58:02.577Z,218.82
2018-01-22T23:00:28.814Z,268.75
2018-01-22T23:02:55.030Z,100.93
2018-01-22T23:05:21.288Z,191.88
2018-01-22T23:07:47.552Z,241.05
2018-01-22T23:10:13.805Z,164.37
2018-01-22T23:12:40.048Z,106.50
2018-01-22T23:15:06.312Z,82.15
2018-01-22T23:17:32.509Z,83.55
2018-01-22T23:19:58.731Z,83.60
2018-01-22T23:22:24.953Z,82.28
2018-01-22T23:24:51.186Z,81.87
2018-01-22T23:27:17.444Z,81.90
2018-01-22T23:29:43.679Z,91.20
2018-01-22T23:32:09.876Z,87.47
2018-01-22T23:34:36.105Z,86.93
2018-01-22T23:37:02.324Z,87.37
2018-01-22T23:39:28.540Z,86.45
2018-01-22T23:41:54.810Z,89.30
2018-01-22T23:44:21.436Z,88.47
2018-01-22T23:46:47.676Z,91.65
2018-01-22T23:49:13.897Z,97.28
2018-01-22T23:51:40.213Z,84.10
2018-01-22T23:54:06.571Z,89.82
2018-01-22T23:56:32.872Z,82.15
2018-01-22T23:58:59.065Z,88.70
